Аэропорт: Абакан. Абакан

ICAO: UNAA

METAR:
2021-07-28 12:30:00
UNAA 281230Z 35002MPS CAVOK 18/13 Q1010 R20/CLRD65 NOSIG RMK QFE735
METAR:
2021-07-28 10:53:00
TAF UNAA 281053Z 2812/2912 07003G08MPS 9999 SCT025CB FM281500 12003MPS 6000 SCT030 TEMPO 2818/2901 3500 BR FM290300 12003G10MPS CAVOK